Time;durP1;ratioP1;P1;durP2;ratioP2;P2;SDS_P1;SDS_P2;PMS_P1;PMS_P2;Temp;Humidity;BMP_temperature;BMP_pressure;BME280_temperature;BME280_humidity;BME280_pressure;Samples;Min_cycle;Max_cycle;Signal;HPM_P1;HPM_P2
2023/08/06 00:02:16;;;;;;;21.50;20.40;;;;;;;16.44;100.00;97888.56;5014268;28;20061;-93
2023/08/06 00:04:42;;;;;;;21.90;20.70;;;;;;;16.45;100.00;97884.03;5014777;28;20383;-91
2023/08/06 00:07:07;;;;;;;23.95;22.58;;;;;;;16.46;100.00;97883.94;5016801;28;20057;-93
2023/08/06 00:09:35;;;;;;;22.13;20.85;;;;;;;16.43;100.00;97876.94;5016465;28;20088;-93
2023/08/06 00:12:01;;;;;;;20.17;19.08;;;;;;;16.41;100.00;97884.22;5008554;28;20586;-92
2023/08/06 00:14:26;;;;;;;19.60;18.40;;;;;;;16.42;100.00;97899.38;5008799;28;20205;-93
2023/08/06 00:16:52;;;;;;;19.63;18.55;;;;;;;16.32;100.00;97882.16;5013149;28;20137;-93
2023/08/06 00:19:18;;;;;;;20.13;19.02;;;;;;;16.45;100.00;97901.00;5016782;28;20495;-92
2023/08/06 00:21:44;;;;;;;18.88;17.65;;;;;;;16.44;100.00;97907.34;5013466;28;20231;-91
2023/08/06 00:24:10;;;;;;;20.83;19.63;;;;;;;16.37;100.00;97895.25;5016266;28;20441;-93
2023/08/06 00:26:37;;;;;;;20.27;18.98;;;;;;;16.38;100.00;97910.41;5016599;28;20145;-92
2023/08/06 00:29:03;;;;;;;21.25;19.70;;;;;;;16.36;100.00;97917.69;5016530;28;20045;-92
2023/08/06 00:31:28;;;;;;;20.20;19.05;;;;;;;16.27;100.00;97912.94;5016345;28;20495;-93
2023/08/06 00:33:54;;;;;;;20.05;18.77;;;;;;;16.26;100.00;97914.72;5013181;28;20049;-93
2023/08/06 00:36:20;;;;;;;20.85;19.58;;;;;;;16.34;100.00;97928.53;5009060;28;20045;-91
2023/08/06 00:38:46;;;;;;;19.80;18.70;;;;;;;16.28;100.00;97922.69;5015467;28;20096;-93
2023/08/06 00:41:12;;;;;;;19.98;18.85;;;;;;;16.25;100.00;97918.38;5016164;28;20111;-92
2023/08/06 00:43:39;;;;;;;20.42;19.33;;;;;;;16.11;100.00;97889.78;5016464;28;20144;-92
2023/08/06 00:46:05;;;;;;;22.27;20.98;;;;;;;16.16;100.00;97906.41;5015952;28;20073;-92
2023/08/06 00:48:31;;;;;;;22.25;20.83;;;;;;;16.15;100.00;97927.97;5009042;28;20065;-93
2023/08/06 00:50:58;;;;;;;22.50;21.10;;;;;;;16.12;100.00;97915.63;4996866;28;20078;-93
2023/08/06 00:53:24;;;;;;;22.00;20.80;;;;;;;16.04;100.00;97907.19;5002781;28;20128;-92
2023/08/06 00:55:51;;;;;;;21.88;20.67;;;;;;;16.08;100.00;97923.97;5016213;28;20483;-92
2023/08/06 00:58:17;;;;;;;20.83;19.67;;;;;;;16.12;100.00;97937.06;5016373;28;20059;-93
2023/08/06 01:00:44;;;;;;;20.80;19.50;;;;;;;16.21;100.00;97938.31;5016556;28;20046;-92
2023/08/06 01:03:10;;;;;;;20.85;19.75;;;;;;;16.17;100.00;97926.91;5016254;28;20056;-94
2023/08/06 01:05:36;;;;;;;21.65;20.25;;;;;;;16.19;100.00;97933.03;5016250;28;20033;-93
2023/08/06 01:08:13;;;;;;;21.88;20.67;;;;;;;16.16;100.00;97917.16;5016312;28;20073;-92
2023/08/06 01:10:51;;;;;;;21.00;19.52;;;;;;;16.35;100.00;97942.78;5016158;28;20049;-93
2023/08/06 01:13:25;;;;;;;21.43;19.87;;;;;;;16.30;100.00;97926.13;5016223;28;20048;-91
2023/08/06 01:15:57;;;;;;;23.58;22.00;;;;;;;16.36;100.00;97934.66;5000236;28;20382;-92
2023/08/06 01:18:23;;;;;;;23.52;21.95;;;;;;;16.22;100.00;97916.75;4999985;28;20041;-92
2023/08/06 01:20:50;;;;;;;22.80;21.48;;;;;;;16.35;100.00;97940.09;5011534;28;20052;-93
2023/08/06 01:23:16;;;;;;;22.98;21.67;;;;;;;16.18;100.00;97915.22;5019343;28;20061;-93
2023/08/06 01:25:49;;;;;;;22.25;20.95;;;;;;;16.12;100.00;97904.88;5019939;28;20044;-91
2023/08/06 01:28:23;;;;;;;23.40;22.10;;;;;;;16.13;100.00;97916.47;5015859;28;20498;-93
2023/08/06 01:30:50;;;;;;;22.67;21.48;;;;;;;16.11;100.00;97902.28;5013037;28;20040;-92
2023/08/06 01:33:21;;;;;;;24.08;22.58;;;;;;;16.09;100.00;97905.09;5019114;28;20063;-93
2023/08/06 01:35:49;;;;;;;23.17;21.77;;;;;;;16.11;100.00;97904.97;5019108;28;20038;-93
2023/08/06 01:38:16;;;;;;;21.70;20.33;;;;;;;16.04;100.00;97911.69;5010888;28;20045;-91
2023/08/06 01:40:42;;;;;;;21.45;20.35;;;;;;;15.94;100.00;97885.47;5017004;28;20045;-92
2023/08/06 01:43:08;;;;;;;22.80;21.60;;;;;;;15.97;100.00;97895.13;5028624;28;20100;-92
2023/08/06 01:45:34;;;;;;;24.52;23.13;;;;;;;16.05;100.00;97900.88;5015471;28;20044;-91
2023/08/06 01:48:00;;;;;;;23.23;21.92;;;;;;;15.92;100.00;97894.56;5018990;28;20437;-91
2023/08/06 01:50:26;;;;;;;24.00;22.40;;;;;;;15.90;100.00;97897.34;5018738;28;20475;-91
2023/08/06 01:52:51;;;;;;;23.42;21.90;;;;;;;15.86;100.00;97898.50;5019020;28;20041;-91
2023/08/06 01:55:19;;;;;;;23.70;22.20;;;;;;;15.77;100.00;97882.97;5035282;28;20037;-91
2023/08/06 01:57:45;;;;;;;23.88;22.67;;;;;;;15.82;100.00;97902.31;5018894;28;20414;-93
2023/08/06 02:00:12;;;;;;;22.95;21.75;;;;;;;15.74;100.00;97892.09;5018509;28;20045;-91
2023/08/06 02:02:38;;;;;;;22.40;20.90;;;;;;;15.69;100.00;97890.59;5018768;28;20037;-93
2023/08/06 02:05:04;;;;;;;22.05;20.65;;;;;;;15.74;100.00;97910.84;5018803;28;20048;-92
2023/08/06 02:07:30;;;;;;;21.98;20.58;;;;;;;15.67;100.00;97893.38;5018514;28;20045;-92
2023/08/06 02:09:56;;;;;;;20.50;19.50;;;;;;;15.66;100.00;97891.66;5015850;28;20406;-92
2023/08/06 02:12:23;;;;;;;20.63;19.52;;;;;;;15.65;100.00;97891.75;5016898;28;20045;-92
2023/08/06 02:14:49;;;;;;;22.67;21.25;;;;;;;15.56;100.00;97887.81;5013503;28;20558;-93
2023/08/06 02:17:14;;;;;;;22.10;20.90;;;;;;;15.55;100.00;97891.47;5011715;28;20072;-94
2023/08/06 02:19:43;;;;;;;23.23;21.92;;;;;;;15.47;100.00;97886.56;5018599;28;20069;-93
2023/08/06 02:22:08;;;;;;;24.90;23.60;;;;;;;15.35;100.00;97872.09;5017546;28;20045;-92
2023/08/06 02:24:34;;;;;;;23.45;22.10;;;;;;;15.45;100.00;97879.56;5016700;28;20515;-90
2023/08/06 02:27:00;;;;;;;23.33;22.02;;;;;;;15.37;100.00;97882.72;5017672;28;20041;-91
2023/08/06 02:29:27;;;;;;;24.33;23.02;;;;;;;15.46;100.00;97890.22;5018104;28;20037;-92
2023/08/06 02:31:53;;;;;;;36.40;34.65;;;;;;;15.43;100.00;97885.03;5017614;28;20042;-92
2023/08/06 02:34:19;;;;;;;38.05;36.15;;;;;;;15.47;100.00;97878.53;5017969;28;20045;-93
2023/08/06 02:36:45;;;;;;;39.88;37.67;;;;;;;15.48;100.00;97879.38;5012294;28;20091;-92
2023/08/06 02:39:10;;;;;;;35.35;33.55;;;;;;;15.54;100.00;97881.69;5009062;28;20387;-92
2023/08/06 02:41:36;;;;;;;30.45;28.95;;;;;;;15.40;100.00;97864.63;5012373;28;20046;-92
2023/08/06 02:44:02;;;;;;;26.65;25.08;;;;;;;15.43;100.00;97873.44;5014552;28;20049;-92
2023/08/06 02:46:29;;;;;;;27.95;26.35;;;;;;;15.53;100.00;97874.63;5007710;28;20037;-92
2023/08/06 02:48:55;;;;;;;26.60;24.83;;;;;;;15.38;100.00;97852.31;5017580;28;20127;-91
2023/08/06 02:51:21;;;;;;;29.83;28.27;;;;;;;15.48;100.00;97869.50;5009742;28;20064;-93
2023/08/06 02:53:48;;;;;;;29.52;27.95;;;;;;;15.33;100.00;97841.88;5003030;28;20113;-91
2023/08/06 02:56:14;;;;;;;26.75;25.33;;;;;;;15.33;100.00;97844.56;5017620;28;20034;-92
2023/08/06 02:58:39;;;;;;;28.73;26.85;;;;;;;15.38;100.00;97858.50;5016510;28;20037;-92
2023/08/06 03:01:07;;;;;;;26.85;25.25;;;;;;;15.35;100.00;97850.69;5017000;28;20390;-92
2023/08/06 03:03:35;;;;;;;32.47;30.70;;;;;;;15.29;100.00;97840.34;5012863;28;20048;-92
2023/08/06 03:06:01;;;;;;;35.97;34.17;;;;;;;15.33;100.00;97857.06;5015858;28;20037;-92
2023/08/06 03:08:27;;;;;;;40.83;38.65;;;;;;;15.30;100.00;97846.53;5014383;28;20137;-93
2023/08/06 03:10:53;;;;;;;40.63;38.70;;;;;;;15.32;100.00;97860.72;5017513;28;20136;-93
2023/08/06 03:13:19;;;;;;;40.17;38.20;;;;;;;15.31;100.00;97862.53;5031010;28;20099;-91
2023/08/06 03:15:52;;;;;;;33.08;30.90;;;;;;;15.15;100.00;97837.63;5016629;28;20518;-91
2023/08/06 03:18:18;;;;;;;33.97;32.25;;;;;;;15.28;100.00;97854.66;5016730;28;20041;-91
2023/08/06 03:20:46;;;;;;;33.63;31.98;;;;;;;15.27;100.00;97850.28;5011276;28;20553;-92
2023/08/06 03:23:12;;;;;;;39.72;37.75;;;;;;;15.29;100.00;97860.88;5033919;28;20041;-92
2023/08/06 03:25:38;;;;;;;39.83;37.88;;;;;;;15.26;100.00;97842.31;5003361;28;20045;-90
2023/08/06 03:28:04;;;;;;;44.17;42.13;;;;;;;15.12;100.00;97836.00;5008490;28;20033;-93
2023/08/06 03:30:29;;;;;;;40.50;38.58;;;;;;;15.14;100.00;97836.75;5006146;28;20128;-93
2023/08/06 03:32:55;;;;;;;38.85;37.10;;;;;;;15.17;100.00;97851.78;5017086;28;20109;-92
2023/08/06 03:35:21;;;;;;;37.28;35.53;;;;;;;15.26;100.00;97867.28;5009568;28;20038;-92
2023/08/06 03:37:49;;;;;;;32.90;30.90;;;;;;;15.20;100.00;97863.19;5015926;28;20095;-93
2023/08/06 03:40:15;;;;;;;25.27;23.73;;;;;;;15.20;100.00;97852.47;5015200;28;20041;-92
2023/08/06 03:42:41;;;;;;;27.23;25.80;;;;;;;15.08;100.00;97837.13;5013628;28;20136;-91
2023/08/06 03:45:08;;;;;;;25.40;23.88;;;;;;;15.28;100.00;97861.84;5014927;28;20037;-92
2023/08/06 03:47:34;;;;;;;27.08;25.38;;;;;;;15.20;100.00;97838.19;5016071;28;20041;-92
2023/08/06 03:50:00;;;;;;;33.83;32.05;;;;;;;15.13;100.00;97842.22;5012967;28;20132;-92
2023/08/06 03:52:26;;;;;;;34.97;33.35;;;;;;;15.02;100.00;97839.31;5011449;28;20041;-93
2023/08/06 03:54:53;;;;;;;32.03;30.33;;;;;;;15.09;100.00;97843.34;5011928;28;20041;-92
2023/08/06 03:57:19;;;;;;;41.53;39.58;;;;;;;15.04;100.00;97834.72;5016618;28;20041;-93
2023/08/06 03:59:45;;;;;;;41.30;39.15;;;;;;;15.09;100.00;97844.19;5016361;28;20048;-92
2023/08/06 04:02:10;;;;;;;44.28;42.25;;;;;;;15.00;100.00;97823.34;5015124;28;20076;-92
2023/08/06 04:04:36;;;;;;;44.05;41.88;;;;;;;15.05;100.00;97837.34;5010776;28;20034;-91
2023/08/06 04:07:02;;;;;;;42.47;40.40;;;;;;;14.93;100.00;97830.88;5012584;28;20041;-91
2023/08/06 04:09:29;;;;;;;39.63;37.70;;;;;;;15.06;100.00;97841.72;5005532;28;20037;-92
2023/08/06 04:11:58;;;;;;;39.55;37.65;;;;;;;15.07;100.00;97842.56;5015577;28;20076;-92
2023/08/06 04:14:25;;;;;;;34.05;32.45;;;;;;;14.99;100.00;97830.50;5011539;28;20037;-90
2023/08/06 04:16:51;;;;;;;34.75;33.00;;;;;;;15.02;100.00;97832.13;5007591;28;20563;-92
2023/08/06 04:19:17;;;;;;;43.15;41.08;;;;;;;14.95;100.00;97820.09;5011808;28;20129;-92
2023/08/06 04:21:43;;;;;;;40.22;38.28;;;;;;;14.91;100.00;97811.38;5012524;28;20045;-92
2023/08/06 04:24:09;;;;;;;42.90;40.72;;;;;;;15.05;100.00;97847.16;5010615;28;20045;-92
2023/08/06 04:26:35;;;;;;;45.17;43.13;;;;;;;15.09;100.00;97854.06;5013062;28;20093;-92
2023/08/06 04:29:02;;;;;;;42.58;40.58;;;;;;;14.96;100.00;97833.38;5016506;28;20103;-92
2023/08/06 04:31:29;;;;;;;42.65;40.75;;;;;;;15.06;100.00;97852.44;5009932;28;20418;-91
2023/08/06 04:33:55;;;;;;;40.83;38.95;;;;;;;15.09;100.00;97854.91;5014099;28;20522;-93
2023/08/06 04:36:20;;;;;;;34.15;32.40;;;;;;;15.08;100.00;97855.03;5016330;28;20083;-92
2023/08/06 04:38:47;;;;;;;33.25;31.48;;;;;;;15.09;100.00;97857.59;5015040;28;20148;-92
2023/08/06 04:41:13;;;;;;;35.00;33.17;;;;;;;15.03;100.00;97833.00;5008239;28;20054;-94
2023/08/06 04:43:39;;;;;;;33.10;31.50;;;;;;;15.05;100.00;97839.13;4996731;28;20057;-91
2023/08/06 04:46:06;;;;;;;33.38;31.50;;;;;;;15.19;100.00;97857.91;4996102;28;20046;-92
2023/08/06 04:48:32;;;;;;;34.35;32.58;;;;;;;15.25;100.00;97841.47;4996909;28;20048;-92
2023/08/06 04:50:58;;;;;;;34.72;32.67;;;;;;;15.14;100.00;97830.56;4999528;28;20049;-91
2023/08/06 04:53:24;;;;;;;32.40;30.70;;;;;;;15.25;100.00;97838.78;5000369;28;20133;-90
2023/08/06 04:55:50;;;;;;;33.58;31.40;;;;;;;15.37;100.00;97858.59;5000096;28;20056;-90
2023/08/06 04:58:15;;;;;;;34.10;32.30;;;;;;;15.23;100.00;97832.66;5000407;28;20141;-92
2023/08/06 05:00:42;;;;;;;32.75;31.05;;;;;;;15.36;100.00;97843.50;4991367;28;20042;-93
2023/08/06 05:03:09;;;;;;;33.08;31.15;;;;;;;15.41;100.00;97850.28;4989447;28;20038;-91
2023/08/06 05:05:35;;;;;;;33.10;31.25;;;;;;;15.34;100.00;97832.88;5000207;28;20117;-92
2023/08/06 05:08:01;;;;;;;31.50;29.92;;;;;;;15.45;100.00;97836.72;5000026;28;20054;-91
2023/08/06 05:10:27;;;;;;;31.90;30.30;;;;;;;15.51;100.00;97849.72;5000274;28;20145;-92
2023/08/06 05:12:53;;;;;;;30.33;28.50;;;;;;;15.53;100.00;97858.53;5000198;28;20065;-92
2023/08/06 05:15:19;;;;;;;28.20;26.75;;;;;;;15.84;100.00;97872.75;4997724;28;20045;-93
2023/08/06 05:17:45;;;;;;;28.13;26.63;;;;;;;16.11;100.00;97837.94;4996991;28;20050;-93
2023/08/06 05:20:13;;;;;;;41.42;39.33;;;;;;;16.79;100.00;97870.13;4999611;28;20084;-93
2023/08/06 05:22:38;;;;;;;22.83;21.33;;;;;;;17.19;100.00;97869.28;4997719;28;20042;-93
2023/08/06 05:25:06;;;;;;;21.52;20.27;;;;;;;17.40;100.00;97861.56;4999761;28;20451;-93
2023/08/06 05:27:32;;;;;;;19.92;18.58;;;;;;;17.74;100.00;97854.69;4999594;28;20038;-93
2023/08/06 05:29:58;;;;;;;20.83;19.52;;;;;;;18.16;100.00;97871.44;4998254;28;20048;-93
2023/08/06 05:32:23;;;;;;;16.70;15.65;;;;;;;18.24;100.00;97860.13;4999454;28;20044;-92
2023/08/06 05:34:49;;;;;;;28.52;26.92;;;;;;;18.43;100.00;97862.31;4998980;28;20157;-92
2023/08/06 05:37:17;;;;;;;24.65;23.35;;;;;;;18.77;100.00;97862.50;4987250;28;20048;-94
2023/08/06 05:39:42;;;;;;;19.13;18.02;;;;;;;18.94;100.00;97872.91;4999520;28;20442;-94
2023/08/06 05:42:08;;;;;;;19.85;18.63;;;;;;;19.04;100.00;97878.44;5011405;28;20045;-94
2023/08/06 05:44:34;;;;;;;18.50;17.30;;;;;;;19.12;100.00;97869.78;5019391;28;20088;-93
2023/08/06 05:47:00;;;;;;;30.52;28.73;;;;;;;19.45;100.00;97883.38;5019060;28;20092;-93
2023/08/06 05:49:25;;;;;;;75.13;71.90;;;;;;;19.57;100.00;97875.31;5027564;28;20038;-91
2023/08/06 05:51:53;;;;;;;100.57;96.75;;;;;;;19.65;100.00;97860.25;5017591;28;20499;-91
2023/08/06 05:54:20;;;;;;;1999.90;999.90;;;;;;;19.78;100.00;97883.56;5017455;28;20080;-92
2023/08/06 05:56:46;;;;;;;1999.90;999.90;;;;;;;19.78;100.00;97878.16;5018640;28;20029;-93
2023/08/06 05:59:12;;;;;;;1999.90;999.90;;;;;;;19.79;100.00;97863.72;5006215;28;20508;-91
2023/08/06 06:01:37;;;;;;;1999.90;999.90;;;;;;;19.87;100.00;97878.31;5013069;28;20033;-93
2023/08/06 06:04:04;;;;;;;1999.90;999.90;;;;;;;19.88;100.00;97884.56;5033962;28;20049;-93
2023/08/06 06:06:29;;;;;;;1999.90;999.90;;;;;;;19.61;100.00;97884.88;5016272;28;20046;-91
2023/08/06 06:08:56;;;;;;;1999.90;999.90;;;;;;;19.52;100.00;97866.69;5018467;28;20045;-92
2023/08/06 06:11:23;;;;;;;1999.90;999.90;;;;;;;19.47;100.00;97878.72;5018796;28;20096;-92
2023/08/06 06:13:51;;;;;;;1999.90;999.90;;;;;;;19.48;100.00;97866.94;5018662;28;20053;-95
2023/08/06 06:16:16;;;;;;;1999.90;999.90;;;;;;;19.64;100.00;97855.81;5018183;28;20557;-92
2023/08/06 06:18:42;;;;;;;50.10;47.80;;;;;;;19.93;100.00;97884.19;5018494;28;20045;-92
2023/08/06 06:21:09;;;;;;;37.80;35.92;;;;;;;20.03;100.00;97888.75;5018356;28;20084;-92
2023/08/06 06:23:34;;;;;;;22.73;21.10;;;;;;;19.80;100.00;97871.69;5018529;28;20033;-92
2023/08/06 06:26:00;;;;;;;23.20;21.60;;;;;;;19.86;100.00;97882.00;5018357;28;20051;-92
2023/08/06 06:28:27;;;;;;;23.52;21.92;;;;;;;19.88;100.00;97885.41;5018458;28;20140;-91
2023/08/06 06:30:53;;;;;;;22.77;21.38;;;;;;;20.00;100.00;97890.84;5015341;28;20065;-93
2023/08/06 06:33:19;;;;;;;25.13;23.17;;;;;;;20.11;100.00;97885.44;5015333;28;20503;-92
2023/08/06 06:35:45;;;;;;;28.15;26.17;;;;;;;20.30;100.00;97899.19;5018365;28;20064;-92
2023/08/06 06:38:11;;;;;;;31.45;29.52;;;;;;;20.53;100.00;97901.84;5012641;28;20041;-93
2023/08/06 06:40:37;;;;;;;24.77;23.27;;;;;;;20.65;100.00;97898.16;5017304;28;20407;-92
2023/08/06 06:43:03;;;;;;;24.42;22.92;;;;;;;20.60;100.00;97905.81;5016079;28;20042;-93
2023/08/06 06:45:30;;;;;;;23.98;22.48;;;;;;;20.69;100.00;97915.84;5017784;28;20037;-93
2023/08/06 06:47:56;;;;;;;22.10;20.70;;;;;;;20.84;100.00;97905.63;5017520;28;20468;-93
2023/08/06 06:50:22;;;;;;;23.55;21.98;;;;;;;20.89;100.00;97910.66;5018129;28;20065;-92
2023/08/06 06:52:48;;;;;;;23.75;22.02;;;;;;;21.10;100.00;97921.50;5017855;28;20136;-93
2023/08/06 06:55:13;;;;;;;23.00;21.35;;;;;;;21.09;100.00;97906.28;5018038;28;20041;-93
2023/08/06 06:57:39;;;;;;;21.48;20.25;;;;;;;21.31;100.00;97906.16;5034424;28;20546;-93
2023/08/06 07:00:06;;;;;;;21.38;20.13;;;;;;;21.47;100.00;97891.34;5017370;28;20135;-92
2023/08/06 07:02:34;;;;;;;19.65;18.02;;;;;;;21.53;100.00;97899.84;5015026;28;20045;-93
2023/08/06 07:05:00;;;;;;;21.02;19.58;;;;;;;21.49;100.00;97911.03;5017574;28;20040;-93
2023/08/06 07:07:25;;;;;;;20.17;18.88;;;;;;;21.60;100.00;97924.50;5016461;28;20045;-92
2023/08/06 07:09:51;;;;;;;22.48;20.98;;;;;;;21.14;100.00;97909.44;5017764;28;20380;-92
2023/08/06 07:12:17;;;;;;;21.23;19.67;;;;;;;21.24;100.00;97914.94;5017510;28;20461;-92
2023/08/06 07:14:43;;;;;;;21.63;19.88;;;;;;;21.30;100.00;97896.34;5008263;28;20045;-91
2023/08/06 07:17:09;;;;;;;20.23;19.13;;;;;;;21.47;100.00;97915.69;5027298;28;20098;-92
2023/08/06 07:19:36;;;;;;;23.77;22.23;;;;;;;21.68;100.00;97899.47;5017464;28;20041;-92
2023/08/06 07:22:02;;;;;;;22.60;21.17;;;;;;;21.82;100.00;97901.88;5017501;28;20057;-93
2023/08/06 07:24:28;;;;;;;23.08;21.58;;;;;;;21.91;100.00;97903.75;5015590;28;20375;-92
2023/08/06 07:26:54;;;;;;;25.67;23.88;;;;;;;21.66;100.00;97905.03;5009649;28;20041;-91
2023/08/06 07:29:21;;;;;;;22.67;21.45;;;;;;;21.83;100.00;97924.38;5017561;28;20133;-92
2023/08/06 07:31:47;;;;;;;23.55;21.60;;;;;;;21.72;100.00;97918.03;5017280;28;20117;-91
2023/08/06 07:34:13;;;;;;;23.10;21.80;;;;;;;21.60;100.00;97918.22;5013809;28;20041;-92
2023/08/06 07:36:43;;;;;;;25.48;23.95;;;;;;;21.59;100.00;97913.81;5016959;28;20548;-92
2023/08/06 07:39:10;;;;;;;25.35;23.85;;;;;;;21.50;100.00;97900.06;5014107;28;20092;-93
2023/08/06 07:41:36;;;;;;;26.45;24.90;;;;;;;21.64;100.00;97916.97;5006960;28;20050;-92
2023/08/06 07:44:02;;;;;;;25.23;23.77;;;;;;;21.89;100.00;97911.16;5012643;28;20548;-94
2023/08/06 07:46:27;;;;;;;24.23;22.75;;;;;;;22.07;100.00;97902.41;5016450;28;20140;-93
2023/08/06 07:48:53;;;;;;;22.55;21.17;;;;;;;22.26;100.00;97909.81;5016867;28;20071;-93
2023/08/06 07:51:19;;;;;;;22.98;21.60;;;;;;;22.40;100.00;97897.72;5011109;28;20526;-92
2023/08/06 07:53:47;;;;;;;19.85;18.70;;;;;;;22.73;100.00;97908.25;5015377;28;20037;-93
2023/08/06 07:56:12;;;;;;;19.38;18.27;;;;;;;22.98;100.00;97908.72;5016853;28;20498;-92
2023/08/06 07:58:38;;;;;;;17.20;15.90;;;;;;;23.17;100.00;97888.91;5024672;28;20044;-93
2023/08/06 08:01:06;;;;;;;16.73;15.43;;;;;;;23.33;100.00;97896.47;5014479;28;20076;-93
2023/08/06 08:03:32;;;;;;;15.43;14.50;;;;;;;23.40;100.00;97884.06;5009504;28;20037;-92
2023/08/06 08:05:57;;;;;;;17.08;15.90;;;;;;;23.66;100.00;97894.31;5016728;28;20429;-93
2023/08/06 08:08:23;;;;;;;18.70;17.63;;;;;;;23.52;100.00;97888.31;5015646;28;20048;-92
2023/08/06 08:10:51;;;;;;;19.13;18.02;;;;;;;23.67;100.00;97885.16;5033213;28;20151;-92
2023/08/06 08:13:16;;;;;;;19.75;18.63;;;;;;;23.67;100.00;97882.47;5016865;28;20048;-93
2023/08/06 08:15:42;;;;;;;20.17;18.90;;;;;;;23.78;100.00;97879.59;5015787;28;20907;-94
2023/08/06 08:18:08;;;;;;;19.23;18.17;;;;;;;23.89;99.41;97884.00;5015756;28;20050;-93
2023/08/06 08:20:35;;;;;;;25.35;23.95;;;;;;;23.91;98.68;97884.72;5014856;28;20106;-92
2023/08/06 08:23:01;;;;;;;26.40;24.98;;;;;;;23.90;99.92;97894.72;5007967;28;20037;-93
2023/08/06 08:25:28;;;;;;;26.33;24.92;;;;;;;23.94;100.00;97887.13;5013880;28;20040;-94
2023/08/06 08:27:55;;;;;;;26.75;25.33;;;;;;;23.58;99.97;97846.19;5021490;28;20067;-94
2023/08/06 08:30:22;;;;;;;23.50;22.20;;;;;;;23.88;99.65;97866.00;5020225;28;20778;-95
2023/08/06 08:32:48;;;;;;;23.67;22.30;;;;;;;24.16;98.58;97862.34;5015044;28;20041;-92
2023/08/06 08:35:15;;;;;;;21.00;19.90;;;;;;;24.24;97.17;97864.28;5020758;28;20034;-93
2023/08/06 08:37:41;;;;;;;20.38;19.27;;;;;;;24.37;98.53;97844.91;5020356;28;20057;-92
2023/08/06 08:40:09;;;;;;;17.88;16.48;;;;;;;24.57;96.98;97864.72;5018879;28;20037;-93
2023/08/06 08:42:35;;;;;;;16.65;15.65;;;;;;;24.85;94.65;97879.13;5018731;28;20084;-93
2023/08/06 08:45:06;;;;;;;17.73;16.58;;;;;;;24.73;88.93;97878.50;5019874;28;20041;-90
2023/08/06 08:47:32;;;;;;;16.98;16.00;;;;;;;24.62;88.96;97854.25;5029220;28;20435;-92
2023/08/06 08:50:00;;;;;;;16.92;16.02;;;;;;;24.82;85.49;97865.84;5020011;28;20037;-93
2023/08/06 08:52:30;;;;;;;15.33;14.50;;;;;;;24.85;81.54;97867.41;5019775;28;20073;-92
2023/08/06 08:54:56;;;;;;;16.10;15.23;;;;;;;25.01;83.79;97865.72;5018053;28;20036;-92
2023/08/06 08:57:22;;;;;;;14.65;13.75;;;;;;;25.35;83.25;97862.31;5016900;28;20079;-92
2023/08/06 08:59:48;;;;;;;14.13;13.32;;;;;;;25.32;83.53;97857.19;5016235;28;20041;-92
2023/08/06 09:02:17;;;;;;;15.65;14.77;;;;;;;25.51;81.27;97867.03;5020033;28;20076;-93
2023/08/06 09:04:44;;;;;;;;;;;;;;;25.36;78.38;97879.50;5020789;28;20041;-94
2023/08/06 09:07:15;;;;;;;17.45;16.38;;;;;;;25.31;59.36;97877.25;5019801;28;19928;-94
2023/08/06 09:09:43;;;;;;;16.30;15.32;;;;;;;24.60;60.05;97872.59;5020289;28;20095;-95
2023/08/06 09:12:14;;;;;;;16.55;15.57;;;;;;;23.80;67.76;97883.03;5020910;28;20426;-93
2023/08/06 09:14:40;;;;;;;18.13;17.23;;;;;;;24.01;69.02;97876.53;5020733;28;20045;-93
2023/08/06 09:17:06;;;;;;;18.00;17.10;;;;;;;24.44;65.19;97884.09;5019259;28;20115;-93
2023/08/06 09:19:33;;;;;;;18.35;17.17;;;;;;;24.72;67.39;97857.78;5016185;28;20137;-93
2023/08/06 09:21:59;;;;;;;17.30;16.23;;;;;;;25.36;64.85;97871.34;5017301;28;20041;-92
2023/08/06 09:24:26;;;;;;;15.10;14.30;;;;;;;25.53;60.45;97870.47;5019477;28;20096;-93
2023/08/06 09:26:52;;;;;;;14.20;13.40;;;;;;;25.88;59.68;97875.97;5014146;28;20045;-92
2023/08/06 09:29:18;;;;;;;13.77;12.90;;;;;;;26.21;57.21;97867.00;5015321;28;20133;-93
2023/08/06 09:31:46;;;;;;;13.48;12.57;;;;;;;26.25;55.61;97864.81;5019277;28;20045;-94
2023/08/06 09:34:12;;;;;;;14.70;13.57;;;;;;;26.16;55.93;97857.63;5013661;28;20045;-91
2023/08/06 09:36:41;;;;;;;13.48;12.65;;;;;;;26.21;55.12;97852.53;5012298;28;20043;-92
2023/08/06 09:39:14;;;;;;;14.05;13.25;;;;;;;26.33;55.12;97858.56;5019586;28;20034;-93
2023/08/06 09:41:39;;;;;;;13.70;12.75;;;;;;;26.28;54.02;97863.63;5015229;28;20037;-93
2023/08/06 09:44:15;;;;;;;13.77;12.73;;;;;;;26.11;55.71;97862.69;5012915;28;20042;-94
2023/08/06 09:46:41;;;;;;;13.85;13.15;;;;;;;25.77;56.63;97852.59;5024281;28;20045;-94
2023/08/06 09:49:08;;;;;;;13.15;12.43;;;;;;;26.02;56.66;97843.59;5022986;28;20503;-92
2023/08/06 09:51:34;;;;;;;13.38;12.60;;;;;;;25.87;52.06;97844.31;5021412;28;20068;-93
2023/08/06 09:54:04;;;;;;;14.68;13.88;;;;;;;25.81;50.78;97859.44;5022483;28;20072;-93
2023/08/06 09:56:33;;;;;;;14.63;13.82;;;;;;;26.10;48.84;97844.66;5004955;28;20061;-93
2023/08/06 09:58:59;;;;;;;13.20;12.55;;;;;;;26.33;45.51;97843.06;5021342;28;20045;-94
2023/08/06 10:01:25;;;;;;;13.10;12.40;;;;;;;26.61;48.63;97859.22;5022949;28;20065;-94
2023/08/06 10:03:53;;;;;;;14.45;13.63;;;;;;;26.34;49.54;97852.06;5022751;28;20049;-95
2023/08/06 10:06:21;;;;;;;14.10;13.30;;;;;;;25.96;50.45;97852.41;5022960;28;20083;-94
2023/08/06 10:08:47;;;;;;;13.70;13.00;;;;;;;25.94;51.49;97834.53;5010328;28;20045;-93
2023/08/06 10:11:17;;;;;;;13.32;12.63;;;;;;;26.21;49.87;97849.81;5013304;28;20038;-93
2023/08/06 10:13:43;;;;;;;13.93;13.15;;;;;;;26.29;48.48;97828.03;5010438;28;20050;-94
2023/08/06 10:16:09;;;;;;;16.52;15.52;;;;;;;26.62;47.99;97833.63;5010539;28;20045;-93
2023/08/06 10:18:37;;;;;;;16.00;15.20;;;;;;;26.84;43.82;97822.09;5008003;28;20046;-93
2023/08/06 10:21:07;;;;;;;14.02;13.25;;;;;;;26.91;46.87;97837.78;5020783;28;20063;-93
2023/08/06 10:23:35;;;;;;;15.10;14.30;;;;;;;26.33;46.53;97823.13;5023412;28;20087;-94
2023/08/06 10:26:01;;;;;;;14.13;13.43;;;;;;;26.57;47.57;97830.56;5019905;28;20057;-95
2023/08/06 10:28:36;;;;;;;14.38;13.48;;;;;;;26.77;46.68;97842.03;5022179;28;20279;-94
2023/08/06 10:31:04;;;;;;;16.15;15.13;;;;;;;26.75;46.24;97844.91;5021337;28;20041;-92
2023/08/06 10:33:42;;;;;;;14.68;13.98;;;;;;;26.80;47.87;97853.44;5016622;28;20137;-96
2023/08/06 10:36:09;;;;;;;16.02;15.23;;;;;;;26.85;45.96;97844.78;5021293;28;20049;-94
2023/08/06 10:38:43;;;;;;;15.40;14.65;;;;;;;27.01;46.45;97841.22;5017437;28;20507;-93
2023/08/06 10:41:15;;;;;;;14.75;13.95;;;;;;;27.19;46.76;97831.00;5018098;28;20045;-93
2023/08/06 10:43:44;;;;;;;15.98;15.10;;;;;;;27.23;46.52;97826.94;4999462;28;20054;-93
2023/08/06 10:46:20;;;;;;;16.40;15.50;;;;;;;26.97;47.10;97839.84;5002546;28;20042;-92
2023/08/06 10:48:46;;;;;;;15.48;14.63;;;;;;;27.16;47.33;97825.88;5018101;28;20065;-94
2023/08/06 10:51:13;;;;;;;15.82;15.02;;;;;;;27.37;47.58;97817.22;5020868;28;20045;-94
2023/08/06 10:53:43;;;;;;;16.05;15.15;;;;;;;27.70;47.37;97821.81;5020801;28;20048;-93
2023/08/06 10:56:13;;;;;;;16.15;15.35;;;;;;;27.55;47.75;97803.38;5022270;28;20467;-94
2023/08/06 10:58:38;;;;;;;16.77;15.98;;;;;;;27.67;48.61;97806.59;5022372;28;20046;-92
2023/08/06 11:01:06;;;;;;;17.35;16.45;;;;;;;27.46;47.64;97831.72;5014310;28;20041;-93
2023/08/06 11:03:33;;;;;;;17.95;17.08;;;;;;;27.07;48.51;97820.59;5021338;28;20052;-93
2023/08/06 11:05:59;;;;;;;16.07;15.27;;;;;;;26.86;50.84;97827.38;5022002;28;20141;-92
2023/08/06 11:08:26;;;;;;;18.55;17.55;;;;;;;26.92;47.94;97802.16;5021003;28;20056;-94
2023/08/06 11:10:52;;;;;;;17.50;16.40;;;;;;;27.15;50.39;97802.34;5022021;28;20046;-94